createdAt,value
2023-01-12T00:00:11.951Z,23.52
2023-01-12T00:00:43.417Z,23.51
2023-01-12T00:01:14.876Z,23.51
2023-01-12T00:01:46.358Z,23.49
2023-01-12T00:02:17.842Z,23.51
2023-01-12T00:02:49.316Z,23.52
2023-01-12T00:03:20.772Z,23.50
2023-01-12T00:03:52.227Z,23.48
2023-01-12T00:04:23.676Z,23.51
2023-01-12T00:04:55.237Z,23.49
2023-01-12T00:05:26.701Z,23.49
2023-01-12T00:05:58.191Z,23.46
2023-01-12T00:06:29.566Z,23.49
2023-01-12T00:07:01.019Z,23.47
2023-01-12T00:07:32.452Z,23.50
2023-01-12T00:08:05.325Z,23.47
2023-01-12T00:08:36.841Z,23.47
2023-01-12T00:09:08.311Z,23.47
2023-01-12T00:09:39.724Z,23.49
2023-01-12T00:10:11.197Z,23.48
2023-01-12T00:10:42.648Z,23.49
2023-01-12T00:11:14.046Z,23.51
2023-01-12T00:11:45.556Z,23.51
2023-01-12T00:12:17.035Z,23.48
2023-01-12T00:12:48.511Z,23.48
2023-01-12T00:13:20.007Z,23.47
2023-01-12T00:13:51.451Z,23.53
2023-01-12T00:14:22.855Z,23.49
2023-01-12T00:14:54.272Z,23.51
2023-01-12T00:15:25.745Z,23.49
2023-01-12T00:15:57.302Z,23.48
2023-01-12T00:16:28.796Z,23.50
2023-01-12T00:17:00.277Z,23.51
2023-01-12T00:17:31.777Z,23.50
2023-01-12T00:18:03.230Z,23.49
2023-01-12T00:18:35.544Z,23.48
2023-01-12T00:19:06.930Z,23.48
2023-01-12T00:19:38.363Z,23.48
2023-01-12T00:20:09.791Z,23.50
2023-01-12T00:20:41.231Z,23.48
2023-01-12T00:21:12.676Z,23.49
2023-01-12T00:21:44.128Z,23.48
2023-01-12T00:22:15.499Z,23.48
2023-01-12T00:22:46.943Z,23.50
2023-01-12T00:23:18.348Z,23.49
2023-01-12T00:23:49.736Z,23.48
2023-01-12T00:24:21.378Z,23.49
2023-01-12T00:24:52.827Z,23.51
2023-01-12T00:25:24.256Z,23.53
2023-01-12T00:25:55.655Z,23.50
2023-01-12T00:26:27.361Z,23.49
2023-01-12T00:26:58.764Z,23.53
2023-01-12T00:27:30.180Z,23.52
2023-01-12T00:28:01.611Z,23.50
2023-01-12T00:28:33.007Z,23.52
2023-01-12T00:29:04.423Z,23.54
2023-01-12T00:29:35.882Z,23.52
2023-01-12T00:30:07.340Z,23.51
2023-01-12T00:30:38.787Z,23.59
2023-01-12T00:31:10.219Z,23.54
2023-01-12T00:31:41.759Z,23.56
2023-01-12T00:32:13.191Z,23.53
2023-01-12T00:32:44.697Z,23.51
2023-01-12T00:33:16.148Z,23.55
2023-01-12T00:33:47.589Z,23.52
2023-01-12T00:34:19.022Z,23.59
2023-01-12T00:34:50.485Z,23.65
2023-01-12T00:35:21.909Z,23.57
2023-01-12T00:35:53.339Z,23.55
2023-01-12T00:36:24.791Z,23.56
2023-01-12T00:36:56.242Z,23.59
2023-01-12T00:37:27.660Z,23.58
2023-01-12T00:37:59.087Z,23.59
2023-01-12T00:38:30.530Z,23.53
2023-01-12T00:39:01.958Z,23.56
2023-01-12T00:39:33.416Z,23.54
2023-01-12T00:40:04.860Z,23.59
2023-01-12T00:40:36.314Z,23.60
2023-01-12T00:41:07.733Z,23.49
2023-01-12T00:41:39.168Z,23.53
2023-01-12T00:42:10.667Z,23.62
2023-01-12T00:42:42.094Z,23.62
2023-01-12T00:43:13.492Z,23.62
2023-01-12T00:43:44.920Z,23.65
2023-01-12T00:44:16.337Z,23.65
2023-01-12T00:44:47.775Z,23.58
2023-01-12T00:45:19.237Z,23.57
2023-01-12T00:45:50.651Z,23.59
2023-01-12T00:46:22.108Z,23.60
2023-01-12T00:46:53.600Z,23.65
2023-01-12T00:47:25.128Z,23.60
2023-01-12T00:47:56.536Z,23.56
2023-01-12T00:48:27.953Z,23.55
2023-01-12T00:48:59.400Z,23.54
2023-01-12T00:49:30.777Z,23.58
2023-01-12T00:50:02.206Z,23.58
2023-01-12T00:50:33.741Z,23.54
2023-01-12T00:51:05.243Z,23.52
2023-01-12T00:51:36.713Z,23.53
2023-01-12T00:52:09.867Z,23.54
2023-01-12T00:52:42.898Z,23.52
2023-01-12T00:53:14.304Z,23.51
2023-01-12T00:53:45.730Z,23.51
2023-01-12T00:54:17.155Z,23.52
2023-01-12T00:54:48.612Z,23.52
2023-01-12T00:55:20.087Z,23.53
2023-01-12T00:55:51.564Z,23.54
2023-01-12T00:56:23.031Z,23.54
2023-01-12T00:56:54.486Z,23.54
2023-01-12T00:57:25.921Z,23.56
2023-01-12T00:57:57.401Z,23.55
2023-01-12T00:58:28.809Z,23.54
2023-01-12T00:59:00.192Z,23.52
2023-01-12T00:59:31.641Z,23.53
2023-01-12T01:00:03.400Z,23.52
2023-01-12T01:00:34.825Z,23.54
2023-01-12T01:01:06.325Z,23.52
2023-01-12T01:01:37.927Z,23.53
2023-01-12T01:02:09.556Z,23.55
2023-01-12T01:02:41.079Z,23.55
2023-01-12T01:03:12.614Z,23.52
2023-01-12T01:03:44.038Z,23.51
2023-01-12T01:04:15.424Z,23.51
2023-01-12T01:04:46.886Z,23.54
2023-01-12T01:05:18.364Z,23.55
2023-01-12T01:05:49.751Z,23.56
2023-01-12T01:06:21.264Z,23.54
2023-01-12T01:06:52.712Z,23.53
2023-01-12T01:07:24.177Z,23.53
2023-01-12T01:07:55.708Z,23.52
2023-01-12T01:08:27.230Z,23.51
2023-01-12T01:08:58.662Z,23.55
2023-01-12T01:09:30.048Z,23.52
2023-01-12T01:10:01.547Z,23.52
2023-01-12T01:10:33.005Z,23.52
2023-01-12T01:11:04.462Z,23.52
2023-01-12T01:11:35.905Z,23.51
2023-01-12T01:12:07.328Z,23.48
2023-01-12T01:12:38.796Z,23.48
2023-01-12T01:13:10.172Z,23.55
2023-01-12T01:13:41.609Z,23.52
2023-01-12T01:14:13.085Z,23.56
2023-01-12T01:14:44.513Z,23.53
2023-01-12T01:15:15.910Z,23.53
2023-01-12T01:15:47.365Z,23.53
2023-01-12T01:16:18.935Z,23.52
2023-01-12T01:16:50.414Z,23.50
2023-01-12T01:17:21.891Z,23.49
2023-01-12T01:17:53.300Z,23.48
2023-01-12T01:18:24.726Z,23.51
2023-01-12T01:18:56.158Z,23.51
2023-01-12T01:19:27.587Z,23.52
2023-01-12T01:19:59.084Z,23.52
2023-01-12T01:20:30.497Z,23.54
2023-01-12T01:21:01.906Z,23.52
2023-01-12T01:21:33.322Z,23.51
2023-01-12T01:22:04.736Z,23.51
2023-01-12T01:22:36.249Z,23.52
2023-01-12T01:23:07.670Z,23.57
2023-01-12T01:23:39.078Z,23.57
2023-01-12T01:24:10.528Z,23.53
2023-01-12T01:24:41.938Z,23.51
2023-01-12T01:25:13.394Z,23.50
2023-01-12T01:25:44.818Z,23.52
2023-01-12T01:26:16.238Z,23.54
2023-01-12T01:26:47.635Z,23.53
2023-01-12T01:27:19.061Z,23.53
2023-01-12T01:27:50.569Z,23.53
2023-01-12T01:28:21.973Z,23.51
2023-01-12T01:28:53.403Z,23.51
2023-01-12T01:29:24.846Z,23.51
2023-01-12T01:29:56.291Z,23.51
2023-01-12T01:30:27.755Z,23.51
2023-01-12T01:30:59.186Z,23.53
2023-01-12T01:31:30.719Z,23.53
2023-01-12T01:32:02.177Z,23.53
2023-01-12T01:32:33.571Z,23.52
2023-01-12T01:33:05.040Z,23.51
2023-01-12T01:33:36.416Z,23.51
2023-01-12T01:34:07.868Z,23.53
2023-01-12T01:34:39.289Z,23.50
2023-01-12T01:35:10.732Z,23.49
2023-01-12T01:35:42.177Z,23.49
2023-01-12T01:36:13.573Z,23.51
2023-01-12T01:36:45.018Z,23.51
2023-01-12T01:37:16.427Z,23.50
2023-01-12T01:37:48.328Z,23.50
2023-01-12T01:38:19.827Z,23.48
2023-01-12T01:38:51.237Z,23.48
2023-01-12T01:39:22.673Z,23.50
2023-01-12T01:39:54.167Z,23.53
2023-01-12T01:40:25.622Z,23.51
2023-01-12T01:40:57.065Z,23.50
2023-01-12T01:41:28.513Z,23.50
2023-01-12T01:41:59.911Z,23.48
2023-01-12T01:42:31.314Z,23.47
2023-01-12T01:43:02.708Z,23.51
2023-01-12T01:43:34.243Z,23.50
2023-01-12T01:44:05.642Z,23.51
2023-01-12T01:44:37.013Z,23.51
2023-01-12T01:45:08.398Z,23.50
2023-01-12T01:45:39.803Z,23.51
2023-01-12T01:46:11.289Z,23.51
2023-01-12T01:46:42.790Z,23.53
2023-01-12T01:47:14.223Z,23.54
2023-01-12T01:47:45.678Z,23.58
2023-01-12T01:48:17.132Z,23.55
2023-01-12T01:48:48.689Z,23.53
2023-01-12T01:49:20.113Z,23.53
2023-01-12T01:49:51.566Z,23.51
2023-01-12T01:50:23.024Z,23.53
2023-01-12T01:50:54.450Z,23.53
2023-01-12T01:51:25.894Z,23.51
2023-01-12T01:51:57.310Z,23.50
2023-01-12T01:52:28.726Z,23.55
2023-01-12T01:53:00.186Z,23.52
2023-01-12T01:53:31.693Z,23.54
2023-01-12T01:54:03.119Z,23.52
2023-01-12T01:54:34.578Z,23.52
2023-01-12T01:55:05.964Z,23.52
2023-01-12T01:55:37.370Z,23.51
2023-01-12T01:56:08.811Z,23.55
2023-01-12T01:56:40.247Z,23.56
2023-01-12T01:57:11.666Z,23.59
2023-01-12T01:57:43.121Z,23.56
2023-01-12T01:58:14.540Z,23.53
2023-01-12T01:58:46.010Z,23.53
2023-01-12T01:59:17.405Z,23.53
2023-01-12T01:59:48.866Z,23.53
2023-01-12T02:00:20.331Z,23.53
2023-01-12T02:00:51.794Z,23.53
2023-01-12T02:01:23.353Z,23.55
2023-01-12T02:01:54.801Z,23.53
2023-01-12T02:02:26.276Z,23.53
2023-01-12T02:02:57.827Z,23.56
2023-01-12T02:03:29.473Z,23.54
2023-01-12T02:04:02.036Z,23.56
2023-01-12T02:04:33.464Z,23.57
2023-01-12T02:05:04.894Z,23.60
2023-01-12T02:05:36.362Z,23.59
2023-01-12T02:06:07.773Z,23.57
2023-01-12T02:06:39.226Z,23.54
2023-01-12T02:07:10.647Z,23.57
2023-01-12T02:07:42.013Z,23.57
2023-01-12T02:08:13.454Z,23.53
2023-01-12T02:08:44.864Z,23.54
2023-01-12T02:09:16.286Z,23.53
2023-01-12T02:09:47.695Z,23.56
2023-01-12T02:10:19.263Z,23.54
2023-01-12T02:10:50.675Z,23.54
2023-01-12T02:11:22.129Z,23.55
2023-01-12T02:11:53.574Z,23.55
2023-01-12T02:12:24.969Z,23.55
2023-01-12T02:12:56.406Z,23.55
2023-01-12T02:13:27.801Z,23.55
2023-01-12T02:13:59.226Z,23.55
2023-01-12T02:14:30.606Z,23.54
2023-01-12T02:15:02.216Z,23.53
2023-01-12T02:15:36.855Z,23.55
2023-01-12T02:16:08.336Z,23.53
2023-01-12T02:16:39.792Z,23.55
2023-01-12T02:17:11.199Z,23.53
2023-01-12T02:17:42.644Z,23.55
2023-01-12T02:18:14.092Z,23.53
2023-01-12T02:18:45.604Z,23.56
2023-01-12T02:19:17.080Z,23.53
2023-01-12T02:19:48.448Z,23.57
2023-01-12T02:20:19.909Z,23.55
2023-01-12T02:20:51.384Z,23.56
2023-01-12T02:21:22.800Z,23.57
2023-01-12T02:21:54.232Z,23.58
2023-01-12T02:22:25.651Z,23.55
2023-01-12T02:22:57.096Z,23.58
2023-01-12T02:23:28.505Z,23.55
2023-01-12T02:23:59.966Z,23.54
2023-01-12T02:24:31.431Z,23.56
2023-01-12T02:25:02.855Z,23.54
2023-01-12T02:25:34.356Z,23.53
2023-01-12T02:26:05.876Z,23.54
2023-01-12T02:26:37.335Z,23.52
2023-01-12T02:27:08.764Z,23.53
2023-01-12T02:27:40.175Z,23.52
2023-01-12T02:28:11.678Z,23.52
2023-01-12T02:28:43.114Z,23.50
2023-01-12T02:29:14.574Z,23.53
2023-01-12T02:29:45.995Z,23.53
2023-01-12T02:30:17.410Z,23.55
2023-01-12T02:30:48.826Z,23.53
2023-01-12T02:31:20.347Z,23.54
2023-01-12T02:31:51.836Z,23.54
2023-01-12T02:32:23.271Z,23.58
2023-01-12T02:32:54.705Z,23.55
2023-01-12T02:33:26.095Z,23.54
2023-01-12T02:33:57.519Z,23.53
2023-01-12T02:34:28.958Z,23.55
2023-01-12T02:35:00.340Z,23.54
2023-01-12T02:35:31.744Z,23.54
2023-01-12T02:36:03.207Z,23.54
2023-01-12T02:36:34.678Z,23.53
2023-01-12T02:37:06.082Z,23.59
2023-01-12T02:37:37.493Z,23.58
2023-01-12T02:38:08.905Z,23.56
2023-01-12T02:38:40.319Z,23.54
2023-01-12T02:39:11.760Z,23.52
2023-01-12T02:39:43.169Z,23.54
2023-01-12T02:40:14.574Z,23.54
2023-01-12T02:40:45.948Z,23.52
2023-01-12T02:41:17.368Z,23.52
2023-01-12T02:41:48.876Z,23.58
2023-01-12T02:42:20.319Z,23.57
2023-01-12T02:42:51.769Z,23.55
2023-01-12T02:43:23.236Z,23.53
2023-01-12T02:43:54.690Z,23.52
2023-01-12T02:44:26.092Z,23.52
2023-01-12T02:44:57.583Z,23.51
2023-01-12T02:45:29.008Z,23.53
2023-01-12T02:46:00.414Z,23.51
2023-01-12T02:46:31.893Z,23.52
2023-01-12T02:47:03.424Z,23.57
2023-01-12T02:47:34.824Z,23.53
2023-01-12T02:48:06.274Z,23.55
2023-01-12T02:48:37.704Z,23.53
2023-01-12T02:49:09.122Z,23.52
2023-01-12T02:49:40.545Z,23.55
2023-01-12T02:50:11.929Z,23.54
2023-01-12T02:50:43.364Z,23.54
2023-01-12T02:51:14.811Z,23.54
2023-01-12T02:51:46.243Z,23.54
2023-01-12T02:52:17.660Z,23.54
2023-01-12T02:52:49.104Z,23.54
2023-01-12T02:53:20.542Z,23.54
2023-01-12T02:53:52.063Z,23.54
2023-01-12T02:54:23.479Z,23.53
2023-01-12T02:54:54.935Z,23.54
2023-01-12T02:55:26.361Z,23.54
2023-01-12T02:55:57.713Z,23.55
2023-01-12T02:56:29.079Z,23.54
2023-01-12T02:57:00.520Z,23.55
2023-01-12T02:57:31.917Z,23.54
2023-01-12T02:58:03.364Z,23.53
2023-01-12T02:58:34.798Z,23.53
2023-01-12T02:59:06.239Z,23.58
2023-01-12T02:59:37.649Z,23.56
2023-01-12T03:00:09.064Z,23.53
2023-01-12T03:00:40.635Z,23.53
2023-01-12T03:01:12.223Z,23.55
2023-01-12T03:01:43.735Z,23.56
2023-01-12T03:02:15.195Z,23.57
2023-01-12T03:02:46.682Z,23.55
2023-01-12T03:03:18.160Z,23.53
2023-01-12T03:03:49.663Z,23.54
2023-01-12T03:04:21.099Z,23.52
2023-01-12T03:04:52.526Z,23.54
2023-01-12T03:05:23.960Z,23.56
2023-01-12T03:05:55.441Z,23.54
2023-01-12T03:06:26.922Z,23.54
2023-01-12T03:06:58.371Z,23.54
2023-01-12T03:07:29.823Z,23.53
2023-01-12T03:08:01.201Z,23.52
2023-01-12T03:08:32.608Z,23.54
2023-01-12T03:09:04.049Z,23.57
2023-01-12T03:09:35.438Z,23.57
2023-01-12T03:10:06.849Z,23.54
2023-01-12T03:10:38.287Z,23.55
2023-01-12T03:11:09.771Z,23.53
2023-01-12T03:11:41.222Z,23.52
2023-01-12T03:12:12.607Z,23.52
2023-01-12T03:12:44.101Z,23.52
2023-01-12T03:13:15.535Z,23.51
2023-01-12T03:13:46.963Z,23.49
2023-01-12T03:14:18.413Z,23.56
2023-01-12T03:14:49.843Z,23.51
2023-01-12T03:15:21.257Z,23.55
2023-01-12T03:15:52.752Z,23.53
2023-01-12T03:16:24.314Z,23.53
2023-01-12T03:16:55.831Z,23.51
2023-01-12T03:17:27.288Z,23.55
2023-01-12T03:17:58.703Z,23.52
2023-01-12T03:18:30.127Z,23.51
2023-01-12T03:19:01.517Z,23.48
2023-01-12T03:19:32.926Z,23.52
2023-01-12T03:20:04.383Z,23.52
2023-01-12T03:20:35.795Z,23.53
2023-01-12T03:21:07.210Z,23.54
2023-01-12T03:21:38.670Z,23.51
2023-01-12T03:22:10.091Z,23.50
2023-01-12T03:22:41.484Z,23.53
2023-01-12T03:23:12.911Z,23.55
2023-01-12T03:23:44.352Z,23.53
2023-01-12T03:24:15.811Z,23.53
2023-01-12T03:24:47.230Z,23.55
2023-01-12T03:25:18.637Z,23.54
2023-01-12T03:25:50.043Z,23.53
2023-01-12T03:26:21.449Z,23.53
2023-01-12T03:26:52.947Z,23.52
2023-01-12T03:27:24.387Z,23.52
2023-01-12T03:27:55.816Z,23.51
2023-01-12T03:28:27.201Z,23.50
2023-01-12T03:28:58.615Z,23.52
2023-01-12T03:29:30.034Z,23.49
2023-01-12T03:30:01.705Z,23.52
2023-01-12T03:30:35.626Z,23.53
2023-01-12T03:31:07.032Z,23.59
2023-01-12T03:31:38.517Z,23.54
2023-01-12T03:32:10.016Z,23.60
2023-01-12T03:32:41.445Z,23.55
2023-01-12T03:33:12.862Z,23.56
2023-01-12T03:33:44.303Z,23.53
2023-01-12T03:34:15.723Z,23.52
2023-01-12T03:34:47.182Z,23.51
2023-01-12T03:35:18.631Z,23.51
2023-01-12T03:35:50.095Z,23.53
2023-01-12T03:36:21.580Z,23.53
2023-01-12T03:36:53.002Z,23.52
2023-01-12T03:37:24.493Z,23.53
2023-01-12T03:37:55.945Z,23.51
2023-01-12T03:38:27.351Z,23.49
2023-01-12T03:38:58.760Z,23.49
2023-01-12T03:39:30.179Z,23.50
2023-01-12T03:40:01.612Z,23.52
2023-01-12T03:40:33.038Z,23.53
2023-01-12T03:41:04.476Z,23.51
2023-01-12T03:41:35.879Z,23.52
2023-01-12T03:42:07.322Z,23.50
2023-01-12T03:42:38.838Z,23.49
2023-01-12T03:43:10.374Z,23.49
2023-01-12T03:43:41.793Z,23.50
2023-01-12T03:44:13.172Z,23.49
2023-01-12T03:44:44.618Z,23.50
2023-01-12T03:45:16.095Z,23.50
2023-01-12T03:45:47.519Z,23.49
2023-01-12T03:46:18.987Z,23.53
2023-01-12T03:46:50.506Z,23.51
2023-01-12T03:47:21.922Z,23.50
2023-01-12T03:47:53.388Z,23.49
2023-01-12T03:48:24.775Z,23.48
2023-01-12T03:48:56.196Z,23.49
2023-01-12T03:49:27.624Z,23.49
2023-01-12T03:49:59.104Z,23.52
2023-01-12T03:50:30.567Z,23.51
2023-01-12T03:51:02.014Z,23.55
2023-01-12T03:51:33.440Z,23.52
2023-01-12T03:52:04.897Z,23.52
2023-01-12T03:52:36.340Z,23.51
2023-01-12T03:53:07.781Z,23.51
2023-01-12T03:53:39.255Z,23.48
2023-01-12T03:54:10.678Z,23.48
2023-01-12T03:54:42.121Z,23.51
2023-01-12T03:55:13.684Z,23.50
2023-01-12T03:55:45.115Z,23.53
2023-01-12T03:56:16.535Z,23.50
2023-01-12T03:56:47.934Z,23.52
2023-01-12T03:57:19.373Z,23.55
2023-01-12T03:57:50.795Z,23.55
2023-01-12T03:58:22.222Z,23.50
2023-01-12T03:58:53.633Z,23.51
2023-01-12T03:59:25.025Z,23.50
2023-01-12T03:59:56.467Z,23.52
2023-01-12T04:00:27.955Z,23.52
2023-01-12T04:00:59.460Z,23.52
2023-01-12T04:01:31.121Z,23.53
2023-01-12T04:02:02.637Z,23.49
2023-01-12T04:02:34.102Z,23.51
2023-01-12T04:03:05.591Z,23.51
2023-01-12T04:03:37.112Z,23.51
2023-01-12T04:04:08.653Z,23.51
2023-01-12T04:04:40.110Z,23.50
2023-01-12T04:05:11.502Z,23.51
2023-01-12T04:05:42.974Z,23.51
2023-01-12T04:06:14.359Z,23.48
2023-01-12T04:06:45.863Z,23.50
2023-01-12T04:07:17.384Z,23.51
2023-01-12T04:07:48.818Z,23.51
2023-01-12T04:08:20.288Z,23.48
2023-01-12T04:08:51.743Z,23.49
2023-01-12T04:09:23.216Z,23.49
2023-01-12T04:09:54.782Z,23.49
2023-01-12T04:10:26.225Z,23.48
2023-01-12T04:10:57.629Z,23.47
2023-01-12T04:11:29.060Z,23.52
2023-01-12T04:12:00.502Z,23.51
2023-01-12T04:12:31.908Z,23.51
2023-01-12T04:13:03.314Z,23.49
2023-01-12T04:13:34.721Z,23.51
2023-01-12T04:14:06.161Z,23.52
2023-01-12T04:14:37.625Z,23.51
2023-01-12T04:15:09.029Z,23.50
2023-01-12T04:15:40.404Z,23.50
2023-01-12T04:16:11.952Z,23.52
2023-01-12T04:16:43.458Z,23.51
2023-01-12T04:17:14.931Z,23.49
2023-01-12T04:17:46.417Z,23.52
2023-01-12T04:18:17.856Z,23.49
2023-01-12T04:18:49.308Z,23.51
2023-01-12T04:19:20.734Z,23.50
2023-01-12T04:19:52.131Z,23.49
2023-01-12T04:20:23.555Z,23.52
2023-01-12T04:20:54.973Z,23.54
2023-01-12T04:21:26.373Z,23.53
2023-01-12T04:21:57.839Z,23.53
2023-01-12T04:22:29.271Z,23.50
2023-01-12T04:23:00.694Z,23.50
2023-01-12T04:23:32.228Z,23.50
2023-01-12T04:24:03.655Z,23.48
2023-01-12T04:24:35.096Z,23.48
2023-01-12T04:25:08.673Z,23.50
2023-01-12T04:25:41.052Z,23.48
2023-01-12T04:26:12.471Z,23.51
2023-01-12T04:26:43.867Z,23.49
2023-01-12T04:27:15.415Z,23.48
2023-01-12T04:27:46.909Z,23.48
2023-01-12T04:28:18.394Z,23.50
2023-01-12T04:28:49.803Z,23.49
2023-01-12T04:29:21.208Z,23.49
2023-01-12T04:29:52.635Z,23.51
2023-01-12T04:30:24.042Z,23.51
2023-01-12T04:30:55.473Z,23.50
2023-01-12T04:31:26.961Z,23.50
2023-01-12T04:31:58.500Z,23.49
2023-01-12T04:32:29.978Z,23.52
2023-01-12T04:33:01.406Z,23.48
2023-01-12T04:33:32.826Z,23.46
2023-01-12T04:34:04.262Z,23.47
2023-01-12T04:34:35.739Z,23.47
2023-01-12T04:35:07.168Z,23.50
2023-01-12T04:35:38.608Z,23.49
2023-01-12T04:36:10.040Z,23.53
2023-01-12T04:36:42.018Z,23.51
2023-01-12T04:37:13.445Z,23.50
2023-01-12T04:37:44.925Z,23.48
2023-01-12T04:38:16.318Z,23.47
2023-01-12T04:38:47.716Z,23.47
2023-01-12T04:39:19.106Z,23.49
2023-01-12T04:39:50.545Z,23.47
2023-01-12T04:40:21.995Z,23.49
2023-01-12T04:40:53.446Z,23.46
2023-01-12T04:41:24.857Z,23.47
2023-01-12T04:41:56.284Z,23.48
2023-01-12T04:42:27.689Z,23.47
2023-01-12T04:42:59.181Z,23.46
2023-01-12T04:43:30.594Z,23.49
2023-01-12T04:44:01.999Z,23.47
2023-01-12T04:44:33.433Z,23.45
2023-01-12T04:45:04.841Z,23.47
2023-01-12T04:45:36.271Z,23.46
2023-01-12T04:46:07.781Z,23.47
2023-01-12T04:46:39.291Z,23.49
2023-01-12T04:47:10.689Z,23.48
2023-01-12T04:47:42.091Z,23.50
2023-01-12T04:48:13.594Z,23.47
2023-01-12T04:48:45.039Z,23.51
2023-01-12T04:49:16.467Z,23.48
2023-01-12T04:49:47.898Z,23.47
2023-01-12T04:50:19.295Z,23.49
2023-01-12T04:50:50.685Z,23.45
2023-01-12T04:51:22.143Z,23.46
2023-01-12T04:51:53.550Z,23.46
2023-01-12T04:52:24.938Z,23.43
2023-01-12T04:52:56.322Z,23.43
2023-01-12T04:53:27.829Z,23.44
2023-01-12T04:53:59.294Z,23.43
2023-01-12T04:54:30.785Z,23.47
2023-01-12T04:55:02.187Z,23.48
2023-01-12T04:55:33.581Z,23.46
2023-01-12T04:56:05.017Z,23.44
2023-01-12T04:56:36.391Z,23.45
2023-01-12T04:57:07.795Z,23.45
2023-01-12T04:57:39.239Z,23.44
2023-01-12T04:58:10.671Z,23.43
2023-01-12T04:58:42.151Z,23.46
2023-01-12T04:59:13.554Z,23.47
2023-01-12T04:59:45.018Z,23.47
2023-01-12T05:00:16.461Z,23.47
2023-01-12T05:00:47.922Z,23.47
2023-01-12T05:01:19.446Z,23.46
2023-01-12T05:01:50.993Z,23.50
2023-01-12T05:02:22.433Z,23.49
2023-01-12T05:02:53.821Z,23.53
2023-01-12T05:03:25.279Z,23.49
2023-01-12T05:03:56.794Z,23.50
2023-01-12T05:04:28.289Z,23.49
2023-01-12T05:04:59.708Z,23.49
2023-01-12T05:05:31.143Z,23.53
2023-01-12T05:06:02.626Z,23.49
2023-01-12T05:06:34.027Z,23.46
2023-01-12T05:07:05.514Z,23.46
2023-01-12T05:07:36.956Z,23.44
2023-01-12T05:08:08.357Z,23.49
2023-01-12T05:08:39.743Z,23.52
2023-01-12T05:09:11.211Z,23.49
2023-01-12T05:09:42.707Z,23.48
2023-01-12T05:10:14.152Z,23.47
2023-01-12T05:10:45.564Z,23.47
2023-01-12T05:11:17.033Z,23.46
2023-01-12T05:11:48.420Z,23.49
2023-01-12T05:12:19.880Z,23.46
2023-01-12T05:12:51.336Z,23.47
2023-01-12T05:13:22.765Z,23.47
2023-01-12T05:13:54.154Z,23.50
2023-01-12T05:14:25.633Z,23.47
2023-01-12T05:14:57.137Z,23.46
2023-01-12T05:15:28.612Z,23.52
2023-01-12T05:16:00.063Z,23.49
2023-01-12T05:16:31.494Z,23.47
2023-01-12T05:17:02.912Z,23.49
2023-01-12T05:17:34.316Z,23.52
2023-01-12T05:18:05.724Z,23.52
2023-01-12T05:18:37.109Z,23.52
2023-01-12T05:19:08.576Z,23.49
2023-01-12T05:19:40.030Z,23.48
2023-01-12T05:20:11.409Z,23.48
2023-01-12T05:20:42.816Z,23.46
2023-01-12T05:21:14.258Z,23.46
2023-01-12T05:21:45.728Z,23.45
2023-01-12T05:22:17.129Z,23.43
2023-01-12T05:22:48.593Z,23.44
2023-01-12T05:23:20.007Z,23.47
2023-01-12T05:23:51.485Z,23.45
2023-01-12T05:24:22.924Z,23.44
2023-01-12T05:24:54.402Z,23.44
2023-01-12T05:25:25.843Z,23.43
2023-01-12T05:25:57.232Z,23.43
2023-01-12T05:26:28.638Z,23.43
2023-01-12T05:27:00.073Z,23.43
2023-01-12T05:27:31.449Z,23.43
2023-01-12T05:28:02.888Z,23.49
2023-01-12T05:28:34.345Z,23.48
2023-01-12T05:29:05.754Z,23.50
2023-01-12T05:29:37.152Z,23.48
2023-01-12T05:30:08.675Z,23.45
2023-01-12T05:30:40.198Z,23.44
2023-01-12T05:31:11.711Z,23.44
2023-01-12T05:31:43.128Z,23.48
2023-01-12T05:32:14.541Z,23.54
2023-01-12T05:32:45.977Z,23.52
2023-01-12T05:33:17.371Z,23.50
2023-01-12T05:33:48.821Z,23.50
2023-01-12T05:34:20.282Z,23.49
2023-01-12T05:34:51.704Z,23.46
2023-01-12T05:35:23.175Z,23.48
2023-01-12T05:35:54.599Z,23.46
2023-01-12T05:36:26.687Z,23.43
2023-01-12T05:36:58.113Z,23.43
2023-01-12T05:37:29.507Z,23.47
2023-01-12T05:38:00.905Z,23.46
2023-01-12T05:38:32.306Z,23.45
2023-01-12T05:39:03.720Z,23.44
2023-01-12T05:39:35.164Z,23.46
2023-01-12T05:40:06.589Z,23.43
2023-01-12T05:40:38.043Z,23.44
2023-01-12T05:41:09.667Z,23.46
2023-01-12T05:41:41.070Z,23.47
2023-01-12T05:42:12.518Z,23.44
2023-01-12T05:42:43.923Z,23.44
2023-01-12T05:43:15.346Z,23.46
2023-01-12T05:43:46.776Z,23.43
2023-01-12T05:44:18.163Z,23.41
2023-01-12T05:44:49.615Z,23.43
2023-01-12T05:45:21.026Z,23.42
2023-01-12T05:45:52.502Z,23.41
2023-01-12T05:46:24.047Z,23.42
2023-01-12T05:46:55.521Z,23.41
2023-01-12T05:47:26.984Z,23.42
2023-01-12T05:47:58.412Z,23.42
2023-01-12T05:48:29.829Z,23.42
2023-01-12T05:49:01.359Z,23.41
2023-01-12T05:49:32.773Z,23.41
2023-01-12T05:50:04.200Z,23.42
2023-01-12T05:50:35.618Z,23.40
2023-01-12T05:51:09.302Z,23.42
2023-01-12T05:51:41.349Z,23.43
2023-01-12T05:52:12.752Z,23.42
2023-01-12T05:52:44.236Z,23.43
2023-01-12T05:53:15.623Z,23.42
2023-01-12T05:53:47.049Z,23.41
2023-01-12T05:54:18.538Z,23.41
2023-01-12T05:54:49.951Z,23.40
2023-01-12T05:55:21.362Z,23.40
2023-01-12T05:55:52.760Z,23.44
2023-01-12T05:56:24.180Z,23.45
2023-01-12T05:56:55.606Z,23.44
2023-01-12T05:57:27.014Z,23.42
2023-01-12T05:57:58.466Z,23.43
2023-01-12T05:58:29.877Z,23.42
2023-01-12T05:59:01.447Z,23.45
2023-01-12T05:59:32.883Z,23.44
2023-01-12T06:00:04.299Z,23.45
2023-01-12T06:00:35.731Z,23.43
2023-01-12T06:01:07.183Z,23.45
2023-01-12T06:01:38.638Z,23.44
2023-01-12T06:02:10.110Z,23.42
2023-01-12T06:02:41.552Z,23.42
2023-01-12T06:03:12.950Z,23.42
2023-01-12T06:03:44.386Z,23.41
2023-01-12T06:04:15.875Z,23.44
2023-01-12T06:04:47.367Z,23.44
2023-01-12T06:05:18.822Z,23.46
2023-01-12T06:05:50.215Z,23.43
2023-01-12T06:06:21.611Z,23.45
2023-01-12T06:06:53.075Z,23.44
2023-01-12T06:07:24.509Z,23.41
2023-01-12T06:07:55.958Z,23.46
2023-01-12T06:08:27.392Z,23.44
2023-01-12T06:08:58.811Z,23.42
2023-01-12T06:09:30.305Z,23.41
2023-01-12T06:10:01.821Z,23.40
2023-01-12T06:10:33.297Z,23.42
2023-01-12T06:11:04.683Z,23.42
2023-01-12T06:11:36.115Z,23.41
2023-01-12T06:12:07.559Z,23.43
2023-01-12T06:12:38.963Z,23.42
2023-01-12T06:13:10.399Z,23.42
2023-01-12T06:13:41.801Z,23.40
2023-01-12T06:14:13.237Z,23.41
2023-01-12T06:14:44.771Z,23.41
2023-01-12T06:15:16.187Z,23.40
2023-01-12T06:15:47.631Z,23.42
2023-01-12T06:16:19.199Z,23.41
2023-01-12T06:16:50.667Z,23.41
2023-01-12T06:17:22.072Z,23.43
2023-01-12T06:17:53.687Z,23.42
2023-01-12T06:18:25.092Z,23.40
2023-01-12T06:18:56.541Z,23.47
2023-01-12T06:19:27.977Z,23.44
2023-01-12T06:19:59.471Z,23.42
2023-01-12T06:20:30.978Z,23.41
2023-01-12T06:21:02.405Z,23.41
2023-01-12T06:21:33.869Z,23.41
2023-01-12T06:22:05.306Z,23.42
2023-01-12T06:22:36.725Z,23.40
2023-01-12T06:23:08.129Z,23.41
2023-01-12T06:23:39.536Z,23.41
2023-01-12T06:24:10.978Z,23.40
2023-01-12T06:24:42.373Z,23.40
2023-01-12T06:25:13.849Z,23.40
2023-01-12T06:25:45.283Z,23.43
2023-01-12T06:26:16.674Z,23.42
2023-01-12T06:26:48.096Z,23.41
2023-01-12T06:27:19.528Z,23.41
2023-01-12T06:27:50.993Z,23.39
2023-01-12T06:28:22.405Z,23.39
2023-01-12T06:28:53.845Z,23.39
2023-01-12T06:29:25.287Z,23.38
2023-01-12T06:29:56.714Z,23.40
2023-01-12T06:30:28.274Z,23.40
2023-01-12T06:30:59.785Z,23.38
2023-01-12T06:31:31.344Z,23.43
2023-01-12T06:32:02.842Z,23.44
2023-01-12T06:32:34.259Z,23.43
2023-01-12T06:33:05.686Z,23.42
2023-01-12T06:33:37.093Z,23.41
2023-01-12T06:34:08.545Z,23.40
2023-01-12T06:34:39.947Z,23.40
2023-01-12T06:35:18.980Z,23.44
2023-01-12T06:35:50.783Z,23.41
2023-01-12T06:36:22.214Z,23.42
2023-01-12T06:36:53.641Z,23.41
2023-01-12T06:37:25.044Z,23.40
2023-01-12T06:37:56.438Z,23.41
2023-01-12T06:38:27.881Z,23.40
2023-01-12T06:38:59.275Z,23.41
2023-01-12T06:39:30.730Z,23.40
2023-01-12T06:40:02.169Z,23.40
2023-01-12T06:40:33.592Z,23.40
2023-01-12T06:41:05.089Z,23.40
2023-01-12T06:41:36.540Z,23.40
2023-01-12T06:42:08.027Z,23.40
2023-01-12T06:42:39.431Z,23.41
2023-01-12T06:43:10.853Z,23.40
2023-01-12T06:43:42.277Z,23.39
2023-01-12T06:44:13.708Z,23.39
2023-01-12T06:44:45.198Z,23.39
2023-01-12T06:45:16.607Z,23.38